San Antonio, TX

7:40 PM CST en Marzo 06, 2015 (GMT -0600)
Castle Hills | Change Station
CLOSE
Current Station
Estación meteorológica personal
Location: San Antonio, TX
Altura: 869 ft
Estaciones meteorológicas cercanas

Alt 869 ft 29.53 °N, 98.52 °W | Updated 13 minutes ago

Nublado
Nublado
51.3 ° F
Sensación térmica 51.3 ° F
N
2.2
Viento Variable Viento desde ESE

Hoy
Alta -- | Baja -- ° F
--% Posibilidad de precipitaciones
Ayer
Alta -- | Baja -- ° F
Precip. -- pul
6:54 AM 6:36 PM
Luna llena, 98% visible
Presión 30.43 pul
Visibilidad 10.0 Millas
Nubes Muy nublado 8500 ft
Nublado 25000 ft
Punto de rocío 31 ° F
Humedad 45%
Precipitaciones pul
Espesor de la nieve No disponible.
UV 0 de una escala de 12
Polen 7.70 de una escala de 12
Calidad del aire No disponible.
Flu Activity No disponible.
METAR KSAT 070051Z 14006KT 10SM BKN085 OVC250 11/M02 A3045 RMK AO2 SLP304 T01061017

More Conditions Fewer Conditions

Presión 30.43 pul
Visibilidad 10.0 Millas
Nubes Muy nublado 8500 ft
Nublado 25000 ft
Punto de rocío 31 ° F
Humedad 45%
Precipitaciones pul
Espesor de la nieve No disponible.
UV 0 de una escala de 12
Polen 7.70 de una escala de 12
Calidad del aire No disponible.
Flu Activity No disponible.
METAR KSAT 070051Z 14006KT 10SM BKN085 OVC250 11/M02 A3045 RMK AO2 SLP304 T01061017

More Conditions Fewer Conditions

10-Day Weather Forecast

Almanac

Astronomía

Mar. 06, 2015 Salida Puesta
Hora real
Crepúsculo civil
Crepúsculo náutico
Crepúsculo astronómico
Luna
Horas de luz
Horas de luz
Tomorrow will be .
, % of the Moon is Illuminated

Extremos de hoy

Máximos del estado Bajos del estado

Community

WunderPhotos

Upload Photos

1,803,494 ¡fotos cargadas!

WunderBlogs® & News

Nearby

Calidad del aire

  Calidad del aire Índice AQ Contaminante
Not available.

Grosos de nieve

Estación Profundido Altura

Actividad de terremotos

Ciudad Distance Mag. Tiempo y dato
Magnitud mínima muestra es 2,5.

Temperaturas de aguas costeras

Lugar Temperatura

Estaciones meteorológicas cercanas